EmailTwitter


Observations de surface / France / LFBO (07630)

Régions: Québec | Canada | États-Unis | Europe | France | UK | Ailleurs
Station
Affichage
Infos & localisation pour LFBO (07630) | Aide pour décoder les METARs

Observations prises le 2020-04-03 à 20H30 UTC à TOULOUSE/BLAGNAC, FR (LFBO)

Température: 9.0 Celsius

Point de rosée: 2.0 Celsius

Humidité relative: 62%

Vents: Variable à 4 km/h ou 2 noeuds.

Pression au niveau moyen de la mer: 101.80 kilopascals.

Observation METAR:

LFBO 032030Z AUTO VRB02KT CAVOK 09/02 Q1018 NOSIG=